Time;durP1;ratioP1;P1;durP2;ratioP2;P2;SDS_P1;SDS_P2;PMS_P1;PMS_P2;Temp;Humidity;BMP_temperature;BMP_pressure;BME280_temperature;BME280_humidity;BME280_pressure;Samples;Min_cycle;Max_cycle;Signal;HPM_P1;HPM_P2
2023/03/17 00:01:20;;;;;;;47.08;22.62;;;;;;;-1.44;69.58;101261.16;1448941;88;22249;-80
2023/03/17 00:03:49;;;;;;;48.08;21.90;;;;;;;-1.47;69.17;101258.22;1471457;88;21363;-80
2023/03/17 00:06:20;;;;;;;48.45;23.07;;;;;;;-1.49;68.99;101260.49;1485286;88;21399;-80
2023/03/17 00:08:46;;;;;;;36.58;16.70;;;;;;;-1.52;68.82;101258.84;1477206;88;21580;-78
2023/03/17 00:11:16;;;;;;;37.17;17.15;;;;;;;-1.52;69.08;101261.44;1472030;88;21355;-78
2023/03/17 00:16:24;;;;;;;30.02;13.32;;;;;;;-1.56;70.35;101255.92;1488587;85;26202;-79
2023/03/17 00:18:52;;;;;;;31.15;15.40;;;;;;;-1.61;70.51;101257.84;1492705;88;21448;-79
2023/03/17 00:21:30;;;;;;;30.02;13.35;;;;;;;-1.61;71.59;101254.80;1463187;88;21478;-78
2023/03/17 00:23:58;;;;;;;29.98;15.40;;;;;;;-1.63;72.53;101254.45;1465719;88;21603;-79
2023/03/17 00:26:26;;;;;;;25.05;11.65;;;;;;;-1.66;73.33;101257.14;1486089;88;21338;-76
2023/03/17 00:28:53;;;;;;;34.18;13.85;;;;;;;-1.68;72.70;101253.28;1474196;88;22141;-77
2023/03/17 00:31:26;;;;;;;20.72;11.15;;;;;;;-1.70;73.63;101252.93;1470398;86;22308;-78
2023/03/17 00:33:54;;;;;;;20.37;10.93;;;;;;;-1.73;73.29;101250.44;1483726;88;21596;-80
2023/03/17 00:36:31;;;;;;;20.00;10.90;;;;;;;-1.78;74.24;101242.81;1463701;88;21455;-78
2023/03/17 00:38:58;;;;;;;28.38;11.85;;;;;;;-1.82;74.37;101245.09;1441598;91;21368;-79
2023/03/17 00:41:25;;;;;;;24.52;11.28;;;;;;;-1.84;73.91;101243.02;1434392;91;21523;-80
2023/03/17 00:43:52;;;;;;;24.92;11.95;;;;;;;-1.86;73.74;101239.16;1456036;90;21560;-80
2023/03/17 00:46:23;;;;;;;24.70;12.28;;;;;;;-1.90;74.30;101236.27;1439534;90;21450;-79
2023/03/17 00:48:50;;;;;;;20.77;11.53;;;;;;;-1.95;75.25;101240.75;1432622;90;21341;-80
2023/03/17 00:51:16;;;;;;;20.90;9.45;;;;;;;-1.98;74.74;101237.41;1442055;89;21725;-79
2023/03/17 00:53:43;;;;;;;25.80;12.37;;;;;;;-2.03;74.99;101234.94;1414862;91;22440;-79
2023/03/17 00:56:15;;;;;;;27.00;11.65;;;;;;;-2.03;74.34;101233.65;1431291;90;21648;-80
2023/03/17 00:58:43;;;;;;;24.25;13.75;;;;;;;-2.02;73.73;101230.14;1416718;91;21457;-80
2023/03/17 01:01:10;;;;;;;35.58;14.95;;;;;;;-2.00;73.94;101233.55;1440771;91;21449;-79
2023/03/17 01:03:37;;;;;;;25.77;10.88;;;;;;;-2.00;73.59;101229.66;1450446;90;21596;-79
2023/03/17 01:06:08;;;;;;;21.87;12.07;;;;;;;-1.99;73.72;101239.58;1439670;89;22299;-78
2023/03/17 01:08:35;;;;;;;23.65;11.38;;;;;;;-2.06;74.64;101234.59;1437161;89;22447;-79
2023/03/17 01:11:01;;;;;;;26.97;12.15;;;;;;;-2.11;75.11;101224.80;1435676;89;21515;-78
2023/03/17 01:13:28;;;;;;;22.22;12.40;;;;;;;-2.09;73.64;101230.80;1444142;89;21648;-79
2023/03/17 01:15:58;;;;;;;30.25;14.78;;;;;;;-2.08;74.00;101232.94;1427180;90;21650;-81
2023/03/17 01:18:24;;;;;;;32.67;14.33;;;;;;;-2.09;74.32;101235.98;1462918;88;21567;-80
2023/03/17 01:20:52;;;;;;;18.62;9.93;;;;;;;-2.11;74.46;101232.58;1467087;87;21383;-80
2023/03/17 01:23:18;;;;;;;24.35;12.00;;;;;;;-2.12;74.24;101233.94;1467988;88;21556;-81
2023/03/17 01:25:45;;;;;;;23.62;10.82;;;;;;;-2.13;73.65;101237.41;1459722;88;21412;-81
2023/03/17 01:28:18;;;;;;;21.00;11.68;;;;;;;-2.15;74.17;101241.81;1475518;88;21640;-80
2023/03/17 01:30:45;;;;;;;21.05;9.83;;;;;;;-2.17;74.03;101231.92;1476239;88;22468;-81
2023/03/17 01:33:13;;;;;;;27.35;14.10;;;;;;;-2.18;74.23;101233.67;1457582;88;22362;-80
2023/03/17 01:35:42;;;;;;;29.98;14.03;;;;;;;-2.19;74.27;101228.52;1465892;88;21471;-81
2023/03/17 01:38:09;;;;;;;34.70;14.05;;;;;;;-2.23;75.20;101229.52;1460530;88;21493;-81
2023/03/17 01:40:41;;;;;;;23.38;11.68;;;;;;;-2.26;75.14;101226.57;1476914;87;21441;-80
2023/03/17 01:43:13;;;;;;;26.25;13.80;;;;;;;-2.30;76.39;101231.01;1456229;88;21296;-79
2023/03/17 01:46:24;;;;;;;27.82;12.37;;;;;;;-2.32;75.48;101219.83;1478063;88;21537;-81
2023/03/17 01:49:04;;;;;;;20.43;8.53;;;;;;;-2.35;75.96;101226.40;1481705;87;22344;-80
2023/03/17 01:52:14;;;;;;;25.30;11.05;;;;;;;-2.46;75.45;101223.27;1479855;87;21641;-81
2023/03/17 01:55:09;;;;;;;23.55;12.53;;;;;;;-2.46;75.45;101223.27;1465344;88;21442;-81
2023/03/17 01:57:45;;;;;;;36.23;10.60;;;;;;;-2.44;75.18;101233.16;1433141;91;21573;-80
2023/03/17 02:00:16;;;;;;;25.15;11.15;;;;;;;-2.48;76.01;101232.83;1458683;88;21449;-80
2023/03/17 02:02:47;;;;;;;22.70;10.95;;;;;;;-2.53;77.21;101229.55;1478460;88;21448;-80
2023/03/17 02:05:18;;;;;;;22.62;10.25;;;;;;;-2.54;75.97;101235.61;1485773;88;21433;-81
2023/03/17 02:07:45;;;;;;;19.82;9.28;;;;;;;-2.54;75.97;101235.61;1453785;88;21501;-80
2023/03/17 02:10:16;;;;;;;23.05;9.28;;;;;;;-2.46;75.61;101239.28;1457189;88;21375;-80
2023/03/17 02:12:44;;;;;;;19.77;10.48;;;;;;;-2.49;77.96;101244.10;1462302;88;21418;-81
2023/03/17 02:15:12;;;;;;;20.50;10.15;;;;;;;-2.52;77.91;101257.16;1458000;87;21649;-79
2023/03/17 02:17:41;;;;;;;19.35;9.75;;;;;;;-2.53;77.48;101259.36;1454957;88;22528;-81
2023/03/17 02:20:26;;;;;;;20.90;8.93;;;;;;;-2.54;75.84;101255.89;1476063;87;21706;-81
2023/03/17 02:22:54;;;;;;;21.80;10.53;;;;;;;-2.58;76.93;101265.95;1488500;88;22219;-79
2023/03/17 02:25:24;;;;;;;22.10;9.40;;;;;;;-2.57;76.29;101268.09;1463476;88;21597;-79
2023/03/17 02:28:03;;;;;;;20.27;10.55;;;;;;;-2.56;76.69;101266.77;1448399;88;21479;-79
2023/03/17 02:30:32;;;;;;;14.53;8.20;;;;;;;-2.52;76.60;101270.96;1456043;88;21985;-80
2023/03/17 02:32:58;;;;;;;16.05;8.23;;;;;;;-2.50;75.67;101273.52;1415255;90;21414;-80
2023/03/17 02:35:25;;;;;;;16.85;9.35;;;;;;;-2.44;75.50;101268.16;1452210;88;22321;-79
2023/03/17 02:37:53;;;;;;;17.20;9.33;;;;;;;-2.40;75.38;101271.05;1464711;87;21507;-79
2023/03/17 02:40:19;;;;;;;18.50;9.98;;;;;;;-2.40;75.63;101274.09;1474600;88;21630;-79
2023/03/17 02:42:45;;;;;;;17.92;8.98;;;;;;;-2.41;75.51;101277.59;1462810;89;21478;-81
2023/03/17 02:45:13;;;;;;;22.52;8.60;;;;;;;-2.43;75.14;101278.92;1465927;88;22351;-81
2023/03/17 02:47:41;;;;;;;18.32;9.70;;;;;;;-2.43;75.12;101277.63;1467658;87;21522;-81
2023/03/17 02:50:11;;;;;;;24.25;11.48;;;;;;;-2.43;75.01;101279.38;1458658;88;22071;-80
2023/03/17 02:52:37;;;;;;;21.10;10.03;;;;;;;-2.44;74.77;101272.05;1473546;88;21607;-79
2023/03/17 02:55:04;;;;;;;16.95;9.00;;;;;;;-2.45;74.53;101276.81;1477950;88;21485;-79
2023/03/17 02:57:30;;;;;;;18.60;8.18;;;;;;;-2.45;73.98;101280.70;1434211;90;21319;-81
2023/03/17 02:59:56;;;;;;;20.45;9.83;;;;;;;-2.46;73.78;101278.16;1435709;90;21408;-79
2023/03/17 03:02:22;;;;;;;25.60;10.15;;;;;;;-2.48;73.75;101279.49;1485818;88;21441;-80
2023/03/17 03:04:49;;;;;;;31.35;9.55;;;;;;;-2.48;73.73;101276.05;1474695;88;22196;-79
2023/03/17 03:07:15;;;;;;;21.60;10.00;;;;;;;-2.51;74.09;101281.72;1468299;88;21574;-81
2023/03/17 03:09:42;;;;;;;20.57;8.83;;;;;;;-2.52;74.28;101283.92;1474488;87;21442;-79
2023/03/17 03:12:08;;;;;;;16.75;9.33;;;;;;;-2.53;74.34;101279.64;1455451;88;22373;-80
2023/03/17 03:14:35;;;;;;;16.67;9.45;;;;;;;-2.55;74.80;101283.16;1484629;87;21573;-80
2023/03/17 03:17:01;;;;;;;21.12;10.00;;;;;;;-2.58;74.62;101284.55;1481402;87;22357;-80
2023/03/17 03:19:28;;;;;;;20.23;8.90;;;;;;;-2.60;74.66;101283.28;1464293;88;21448;-81
2023/03/17 03:21:54;;;;;;;19.45;9.20;;;;;;;-2.63;74.47;101272.16;1469570;87;21560;-80
2023/03/17 03:24:21;;;;;;;17.20;7.75;;;;;;;-2.64;74.49;101268.72;1478554;88;21604;-80
2023/03/17 03:26:47;;;;;;;15.43;9.78;;;;;;;-2.65;74.75;101267.00;1460268;87;23464;-80
2023/03/17 03:29:14;;;;;;;27.40;10.03;;;;;;;-2.67;74.46;101267.52;1464222;88;21442;-81
2023/03/17 03:31:40;;;;;;;20.50;9.33;;;;;;;-2.67;74.09;101264.08;1456904;87;21406;-79
2023/03/17 03:34:07;;;;;;;18.90;8.90;;;;;;;-2.68;73.89;101263.20;1491367;87;22603;-81
2023/03/17 03:36:33;;;;;;;19.45;10.60;;;;;;;-2.68;74.12;101267.55;1485899;87;21397;-81
2023/03/17 03:39:00;;;;;;;34.03;15.00;;;;;;;-2.68;74.18;101270.13;1471024;87;21411;-80
2023/03/17 03:41:26;;;;;;;25.92;10.82;;;;;;;-2.76;75.06;101269.91;1477037;88;21548;-80
2023/03/17 03:43:52;;;;;;;32.65;14.33;;;;;;;-2.81;75.53;101270.94;1477418;88;21538;-80
2023/03/17 03:46:19;;;;;;;27.55;13.28;;;;;;;-2.86;75.02;101271.05;1477214;88;22126;-81
2023/03/17 03:48:45;;;;;;;20.23;9.48;;;;;;;-2.85;75.46;101274.48;1430992;91;21474;-81
2023/03/17 03:51:11;;;;;;;23.42;10.00;;;;;;;-2.90;76.86;101274.63;1436466;92;22465;-80
2023/03/17 03:53:37;;;;;;;18.80;9.15;;;;;;;-2.88;76.94;101272.81;1418595;92;21664;-80
2023/03/17 03:56:05;;;;;;;19.32;9.45;;;;;;;-2.86;77.86;101268.45;1397849;92;21503;-80
2023/03/17 03:58:31;;;;;;;25.35;8.98;;;;;;;-2.79;77.53;101264.82;1430952;91;21363;-80
2023/03/17 04:00:57;;;;;;;26.30;11.45;;;;;;;-2.70;76.50;101269.31;1430871;90;22536;-80
2023/03/17 04:03:23;;;;;;;21.05;10.38;;;;;;;-2.71;77.19;101269.77;1423747;89;21331;-80
2023/03/17 04:05:50;;;;;;;37.03;16.45;;;;;;;-2.63;76.11;101273.45;1454992;88;21449;-80
2023/03/17 04:09:03;;;;;;;30.30;14.87;;;;;;;-2.61;76.06;101271.23;1444039;89;22425;-81
2023/03/17 04:11:29;;;;;;;28.57;11.50;;;;;;;-2.60;75.58;101272.07;1448850;89;21516;-79
2023/03/17 04:13:55;;;;;;;28.75;11.15;;;;;;;-2.64;75.04;101267.87;1437006;90;21413;-82
2023/03/17 04:16:22;;;;;;;28.60;10.98;;;;;;;-2.73;75.32;101263.80;1419184;91;22353;-81
2023/03/17 04:18:48;;;;;;;27.07;12.10;;;;;;;-2.78;76.57;101264.37;1425465;92;21495;-81
2023/03/17 04:21:17;;;;;;;30.25;12.43;;;;;;;-2.81;76.76;101260.11;1420958;91;22412;-81
2023/03/17 04:23:44;;;;;;;25.45;12.53;;;;;;;-2.83;77.72;101263.19;1431119;90;22390;-81
2023/03/17 04:26:11;;;;;;;26.60;11.43;;;;;;;-2.82;76.27;101263.61;1468849;88;21486;-81
2023/03/17 04:28:38;;;;;;;22.75;11.10;;;;;;;-2.83;76.42;101263.19;1462438;88;22505;-81
2023/03/17 04:31:05;;;;;;;25.60;12.85;;;;;;;-2.87;76.51;101260.29;1425476;91;21341;-81
2023/03/17 04:33:33;;;;;;;32.63;14.45;;;;;;;-2.88;75.79;101261.16;1424078;91;22407;-81
2023/03/17 04:36:02;;;;;;;32.00;14.38;;;;;;;-2.89;75.69;101267.24;1439746;88;22325;-81
2023/03/17 04:38:29;;;;;;;41.35;14.80;;;;;;;-2.89;75.85;101267.70;1452965;88;21544;-81
2023/03/17 04:40:55;;;;;;;27.15;11.57;;;;;;;-2.89;76.18;101276.31;1460441;87;21509;-81
2023/03/17 04:43:22;;;;;;;24.37;12.05;;;;;;;-2.92;76.96;101268.63;1461204;88;22146;-82
2023/03/17 04:45:48;;;;;;;24.30;11.78;;;;;;;-2.94;76.97;101280.76;1396343;91;21460;-82
2023/03/17 04:48:14;;;;;;;29.20;12.82;;;;;;;-2.93;76.47;101279.89;1450898;88;22337;-81
2023/03/17 04:50:41;;;;;;;22.37;11.45;;;;;;;-2.93;76.24;101279.89;1455531;90;21615;-81
2023/03/17 04:53:08;;;;;;;18.98;11.35;;;;;;;-2.92;75.86;101288.05;1452426;89;22256;-80
2023/03/17 04:55:35;;;;;;;25.48;11.38;;;;;;;-2.96;76.12;101282.56;1453644;89;21729;-79
2023/03/17 04:58:01;;;;;;;31.02;13.70;;;;;;;-2.99;77.24;101293.00;1446241;89;21502;-80
2023/03/17 05:00:27;;;;;;;25.30;11.35;;;;;;;-2.98;76.96;101293.39;1449391;90;22534;-79
2023/03/17 05:02:54;;;;;;;29.75;12.45;;;;;;;-2.96;76.46;101302.83;1452349;90;22001;-79
2023/03/17 05:05:20;;;;;;;23.60;10.68;;;;;;;-2.92;76.00;101301.45;1451005;89;21560;-80
2023/03/17 05:07:46;;;;;;;32.95;12.58;;;;;;;-2.90;76.70;101304.41;1442595;89;21567;-79
2023/03/17 05:10:12;;;;;;;27.00;11.88;;;;;;;-2.89;77.52;101311.28;1452052;90;22499;-79
2023/03/17 05:12:39;;;;;;;26.17;10.95;;;;;;;-2.82;77.35;101313.25;1444347;89;21449;-78
2023/03/17 05:15:06;;;;;;;27.55;12.15;;;;;;;-2.78;77.48;101318.33;1461975;90;21442;-78
2023/03/17 05:17:33;;;;;;;23.18;10.00;;;;;;;-2.69;77.02;101316.39;1464517;89;21559;-78
2023/03/17 05:19:59;;;;;;;24.00;11.95;;;;;;;-2.60;77.66;101320.02;1462322;89;21578;-79
2023/03/17 05:22:25;;;;;;;23.30;9.68;;;;;;;-2.52;77.50;101318.06;1456890;88;21448;-78
2023/03/17 05:24:52;;;;;;;29.32;12.28;;;;;;;-2.45;77.52;101319.59;1463343;89;21600;-78
2023/03/17 05:27:18;;;;;;;21.73;9.83;;;;;;;-2.36;77.30;101321.06;1459956;88;21625;-77
2023/03/17 05:29:45;;;;;;;26.15;12.45;;;;;;;-2.24;76.73;101321.16;1459635;89;21559;-79
2023/03/17 05:32:12;;;;;;;24.25;11.75;;;;;;;-2.12;76.70;101322.13;1454881;88;21556;-79
2023/03/17 05:34:38;;;;;;;23.07;10.82;;;;;;;-1.97;76.37;101322.95;1467600;88;21500;-79
2023/03/17 05:37:06;;;;;;;24.87;11.83;;;;;;;-1.87;76.47;101321.80;1456903;89;21382;-78
2023/03/17 05:39:32;;;;;;;28.57;12.47;;;;;;;-1.74;76.44;101327.91;1468829;88;21456;-78
2023/03/17 05:41:59;;;;;;;25.48;11.33;;;;;;;-1.69;75.89;101324.27;1461801;88;21383;-78
2023/03/17 05:44:25;;;;;;;31.80;13.68;;;;;;;-1.59;75.57;101330.02;1455674;88;21471;-78
2023/03/17 05:46:51;;;;;;;41.80;13.93;;;;;;;-1.56;75.48;101329.92;1461970;88;21391;-79
2023/03/17 05:49:17;;;;;;;28.80;11.68;;;;;;;-1.43;75.30;101330.40;1460888;89;21662;-80
2023/03/17 05:51:44;;;;;;;33.18;14.43;;;;;;;-1.33;75.37;101333.53;1466120;89;22314;-79
2023/03/17 05:54:10;;;;;;;28.83;12.65;;;;;;;-1.23;75.05;101335.80;1463160;89;21604;-78
2023/03/17 05:56:36;;;;;;;29.87;10.90;;;;;;;-1.10;74.84;101337.98;1447466;89;21478;-79
2023/03/17 05:59:04;;;;;;;24.65;10.40;;;;;;;-0.98;74.66;101342.33;1461766;88;21596;-79
2023/03/17 06:01:30;;;;;;;31.73;11.90;;;;;;;-0.93;74.28;101336.97;1456111;88;21493;-79
2023/03/17 06:03:57;;;;;;;26.60;11.55;;;;;;;-0.83;74.28;101336.22;1457567;88;21448;-78
2023/03/17 06:06:23;;;;;;;21.52;11.48;;;;;;;-0.72;74.31;101337.97;1462398;89;21585;-79
2023/03/17 06:08:49;;;;;;;26.57;11.70;;;;;;;-0.61;74.49;101337.14;1468461;88;21529;-79
2023/03/17 06:11:18;;;;;;;21.33;9.48;;;;;;;-0.51;74.10;101342.44;1452201;89;21456;-80
2023/03/17 06:13:44;;;;;;;20.15;9.90;;;;;;;-0.39;73.83;101345.50;1463541;89;21536;-80
2023/03/17 06:16:10;;;;;;;18.20;8.80;;;;;;;-0.30;73.84;101351.67;1456393;88;22601;-79
2023/03/17 06:18:36;;;;;;;17.02;8.58;;;;;;;-0.25;73.02;101356.26;1469894;89;22529;-79
2023/03/17 06:21:02;;;;;;;16.82;7.85;;;;;;;-0.18;72.40;101356.41;1431255;91;22493;-82
2023/03/17 06:23:28;;;;;;;22.93;8.83;;;;;;;-0.13;71.91;101361.00;1426094;92;21701;-82
2023/03/17 06:25:55;;;;;;;15.48;7.53;;;;;;;-0.07;71.63;101365.98;1430252;92;22309;-81
2023/03/17 06:28:22;;;;;;;21.05;9.40;;;;;;;-0.06;71.41;101367.70;1419733;91;21502;-82
2023/03/17 06:30:49;;;;;;;18.30;9.15;;;;;;;0.08;71.16;101366.31;1417300;91;21614;-81
2023/03/17 06:33:17;;;;;;;21.97;10.05;;;;;;;0.10;70.46;101366.66;1415378;91;21583;-81
2023/03/17 06:35:57;;;;;;;19.25;9.53;;;;;;;0.27;71.13;101363.42;1410331;92;21479;-81
2023/03/17 06:42:43;;;;;;;21.33;9.00;;;;;;;0.45;70.28;101369.20;1422227;92;21614;-80
2023/03/17 06:45:13;;;;;;;27.42;9.58;;;;;;;0.71;70.61;101373.84;1417719;92;21554;-80
2023/03/17 06:51:40;;;;;;;22.87;10.77;;;;;;;0.99;70.07;101377.95;1420878;92;21735;-81
2023/03/17 06:54:07;;;;;;;21.50;10.53;;;;;;;1.23;69.15;101370.39;1427469;92;21697;-81
2023/03/17 06:56:34;;;;;;;24.80;10.73;;;;;;;1.32;68.53;101373.94;1422235;91;23281;-82
2023/03/17 06:59:01;;;;;;;25.40;10.70;;;;;;;1.45;68.62;101369.50;1417951;92;21631;-82
2023/03/17 07:01:27;;;;;;;16.57;8.17;;;;;;;1.58;68.38;101377.16;1418339;92;21910;-81
2023/03/17 07:03:54;;;;;;;12.60;7.77;;;;;;;1.77;68.62;101377.22;1422433;92;21734;-80
2023/03/17 07:06:22;;;;;;;19.07;8.90;;;;;;;1.89;66.45;101375.82;1416461;92;21623;-80
2023/03/17 07:08:49;;;;;;;27.87;13.47;;;;;;;2.03;66.70;101374.28;1420661;92;21818;-79
2023/03/17 07:11:16;;;;;;;18.87;9.83;;;;;;;2.21;67.43;101373.05;1421941;92;22623;-81
2023/03/17 07:13:46;;;;;;;22.02;9.73;;;;;;;2.36;65.90;101367.56;1418528;92;22725;-80
2023/03/17 07:16:15;;;;;;;21.37;9.37;;;;;;;2.47;65.81;101362.67;1429936;92;21465;-80
2023/03/17 07:18:42;;;;;;;19.10;9.27;;;;;;;2.58;64.17;101372.63;1421406;91;21851;-80
2023/03/17 07:21:08;;;;;;;20.57;9.63;;;;;;;2.58;64.52;101362.17;1541610;88;21728;-80
2023/03/17 07:23:34;;;;;;;19.37;9.07;;;;;;;2.74;64.72;101357.07;1406212;89;21931;-80
2023/03/17 07:26:02;;;;;;;23.63;9.90;;;;;;;2.91;65.69;101351.86;1431437;91;22546;-80
2023/03/17 07:28:29;;;;;;;28.43;9.87;;;;;;;3.08;65.29;101354.92;1444377;89;21699;-79
2023/03/17 07:30:56;;;;;;;15.27;8.37;;;;;;;3.22;64.52;101349.00;1455705;89;22755;-80
2023/03/17 07:33:24;;;;;;;17.50;9.07;;;;;;;3.35;63.65;101349.61;1430337;91;22327;-80
2023/03/17 07:39:51;;;;;;;13.93;6.33;;;;;;;4.11;61.79;101350.88;1433269;91;22920;-81
2023/03/17 07:42:17;;;;;;;11.33;6.60;;;;;;;4.28;60.74;101341.63;1438984;89;21816;-80
2023/03/17 07:44:44;;;;;;;21.23;7.50;;;;;;;4.28;60.74;101341.63;1439065;91;22863;-80
2023/03/17 07:47:12;;;;;;;12.93;6.13;;;;;;;4.46;60.68;101351.10;1453330;89;21915;-80
2023/03/17 07:49:38;;;;;;;16.33;7.20;;;;;;;4.64;60.57;101351.00;1437131;91;21974;-80
2023/03/17 07:52:05;;;;;;;14.00;5.27;;;;;;;4.82;59.68;101359.59;1458360;88;22109;-81
2023/03/17 07:54:31;;;;;;;16.33;7.93;;;;;;;4.93;58.25;101361.97;1432164;91;23207;-80
2023/03/17 07:56:58;;;;;;;11.43;5.30;;;;;;;5.04;57.86;101361.83;1462255;88;22160;-80
2023/03/17 07:59:24;;;;;;;10.40;6.00;;;;;;;5.13;55.15;101361.29;1455176;89;22133;-80
2023/03/17 08:01:50;;;;;;;11.10;5.70;;;;;;;5.27;57.52;101363.11;1451195;89;22245;-79
2023/03/17 08:04:16;;;;;;;12.33;6.87;;;;;;;5.39;57.12;101359.27;1427033;91;23278;-80
2023/03/17 08:06:42;;;;;;;10.43;5.27;;;;;;;5.62;56.38;101363.63;1459359;88;22148;-80
2023/03/17 08:09:10;;;;;;;12.23;5.80;;;;;;;5.62;56.38;101363.63;1456308;89;21597;-80
2023/03/17 08:11:36;;;;;;;12.57;6.07;;;;;;;5.74;54.31;101364.18;1436121;91;21541;-79
2023/03/17 08:14:04;;;;;;;16.23;6.63;;;;;;;5.80;53.47;101351.64;1458543;88;21486;-80
2023/03/17 08:16:32;;;;;;;10.20;5.87;;;;;;;5.94;53.88;101351.64;1433283;91;21651;-80
2023/03/17 08:19:03;;;;;;;10.03;5.80;;;;;;;6.06;52.38;101355.65;1470792;88;21389;-80
2023/03/17 08:21:29;;;;;;;7.87;4.58;;;;;;;6.19;53.19;101347.86;1444288;91;21495;-79
2023/03/17 08:23:56;;;;;;;37.97;18.70;;;;;;;6.32;49.82;101351.38;1429077;91;22294;-80
2023/03/17 08:26:22;;;;;;;15.80;7.27;;;;;;;6.40;48.15;101351.38;1430777;92;21465;-79
2023/03/17 08:28:49;;;;;;;36.83;18.13;;;;;;;6.54;51.09;101357.91;1426069;92;21464;-80
2023/03/17 08:31:21;;;;;;;10.30;4.67;;;;;;;6.67;45.83;101354.84;1419138;91;21621;-80
2023/03/17 08:33:52;;;;;;;8.53;3.93;;;;;;;6.81;46.59;101355.73;1426876;91;21502;-80
2023/03/17 08:36:19;;;;;;;8.13;4.33;;;;;;;7.01;49.52;101359.21;1406468;92;22382;-80
2023/03/17 08:38:47;;;;;;;42.57;25.33;;;;;;;7.05;43.01;101360.71;1433516;91;21525;-80
2023/03/17 08:45:17;;;;;;;8.37;3.03;;;;;;;7.15;41.79;101360.45;1430836;92;21760;-81
2023/03/17 08:47:44;;;;;;;9.20;4.93;;;;;;;7.44;44.96;101361.59;1422918;92;21436;-77
2023/03/17 08:50:22;;;;;;;6.07;3.43;;;;;;;7.44;40.04;101364.23;1419940;92;22227;-80
2023/03/17 08:52:50;;;;;;;38.60;19.67;;;;;;;7.55;41.67;101361.70;1427233;91;22033;-80
2023/03/17 08:55:18;;;;;;;12.30;6.07;;;;;;;7.65;42.76;101361.45;1423557;91;22433;-83
2023/03/17 08:57:45;;;;;;;22.33;11.27;;;;;;;7.78;42.92;101347.42;1411427;92;22316;-81
2023/03/17 09:00:14;;;;;;;27.37;13.20;;;;;;;7.88;43.62;101348.44;1430663;91;22063;-80
2023/03/17 09:02:43;;;;;;;12.60;4.43;;;;;;;8.02;42.60;101352.27;1425599;91;21983;-81
2023/03/17 09:05:16;;;;;;;7.00;3.37;;;;;;;8.20;44.55;101357.19;1418969;91;21474;-80
2023/03/17 09:07:42;;;;;;;20.73;10.00;;;;;;;8.37;43.93;101351.55;1422377;92;21989;-81
2023/03/17 09:10:12;;;;;;;16.07;7.87;;;;;;;8.46;42.41;101358.84;1425744;92;21465;-80
2023/03/17 09:12:38;;;;;;;8.38;2.98;;;;;;;8.52;43.07;101355.76;1421679;92;22330;-80
2023/03/17 09:15:06;;;;;;;79.60;36.77;;;;;;;8.59;42.53;101354.34;1406866;92;21664;-80
2023/03/17 09:17:33;;;;;;;15.83;7.07;;;;;;;8.69;39.98;101353.66;1420580;91;21436;-80
2023/03/17 09:19:59;;;;;;;20.37;10.83;;;;;;;8.76;39.35;101357.55;1450981;89;22424;-79
2023/03/17 09:22:25;;;;;;;8.97;4.10;;;;;;;8.78;40.16;101361.77;1441824;89;22365;-80
2023/03/17 09:24:52;;;;;;;74.17;36.80;;;;;;;8.90;41.82;101358.69;1430605;91;21936;-80
2023/03/17 09:27:18;;;;;;;25.73;12.50;;;;;;;9.02;41.44;101358.25;1455203;88;21649;-80
2023/03/17 09:29:44;;;;;;;91.37;46.13;;;;;;;8.78;35.15;101350.37;1458152;89;22373;-80
2023/03/17 09:32:11;;;;;;;54.57;26.83;;;;;;;8.94;40.16;101348.25;1453865;89;22550;-80
2023/03/17 09:34:37;;;;;;;15.03;6.10;;;;;;;9.03;40.14;101340.98;1463896;89;21789;-80
2023/03/17 09:37:03;;;;;;;12.43;7.07;;;;;;;9.14;37.91;101340.64;1433143;91;21533;-80
2023/03/17 09:39:30;;;;;;;23.17;10.90;;;;;;;9.17;40.15;101343.05;1455274;88;21603;-80
2023/03/17 09:42:32;;;;;;;30.23;14.03;;;;;;;9.30;40.21;101346.45;1441290;89;21464;-80
2023/03/17 09:45:20;;;;;;;10.63;3.75;;;;;;;9.34;38.38;101342.61;1460751;88;21463;-80
2023/03/17 09:48:12;;;;;;;18.40;8.50;;;;;;;9.31;37.07;101332.27;1436407;91;22517;-79
2023/03/17 09:50:58;;;;;;;48.50;24.73;;;;;;;9.25;34.03;101335.39;1450359;88;21448;-80
2023/03/17 09:53:34;;;;;;;18.30;9.70;;;;;;;9.09;38.24;101333.09;1457616;89;22373;-80
2023/03/17 09:56:15;;;;;;;12.10;5.47;;;;;;;9.20;38.75;101332.25;1453453;89;21500;-79
2023/03/17 09:58:46;;;;;;;51.48;21.65;;;;;;;9.25;37.82;101331.42;1441400;91;22362;-80
2023/03/17 10:01:13;;;;;;;11.60;5.40;;;;;;;9.38;34.13;101334.83;1457551;89;21559;-80
2023/03/17 10:03:39;;;;;;;12.73;6.23;;;;;;;9.38;35.64;101330.86;1451176;88;21584;-82
2023/03/17 10:06:20;;;;;;;8.47;3.63;;;;;;;9.56;38.30;101327.77;1458381;89;21382;-82
2023/03/17 10:09:21;;;;;;;8.20;3.93;;;;;;;9.90;39.93;101334.73;1433628;91;21496;-82
2023/03/17 10:11:52;;;;;;;4.83;3.10;;;;;;;10.27;40.32;101329.19;1414453;89;21478;-81
2023/03/17 10:14:42;;;;;;;7.85;3.05;;;;;;;10.60;37.12;101326.08;1430541;91;22354;-82
2023/03/17 10:17:25;;;;;;;9.57;3.60;;;;;;;10.68;35.63;101322.32;1424449;91;21553;-80
2023/03/17 10:20:29;;;;;;;15.83;8.00;;;;;;;10.27;33.63;101317.73;1416479;91;21650;-82
2023/03/17 10:27:35;;;;;;;7.10;2.23;;;;;;;10.70;35.04;101315.56;1433343;91;21585;-82
2023/03/17 10:30:01;;;;;;;8.50;3.08;;;;;;;11.01;35.24;101307.23;1461636;88;21418;-82
2023/03/17 10:32:31;;;;;;;5.83;2.43;;;;;;;11.18;33.23;101308.45;1433840;91;22347;-81
2023/03/17 10:34:58;;;;;;;8.08;4.12;;;;;;;11.19;32.04;101309.67;1456826;88;21514;-82
2023/03/17 10:37:25;;;;;;;10.80;4.93;;;;;;;11.34;33.53;101306.69;1433076;91;21644;-82
2023/03/17 10:39:55;;;;;;;11.07;4.23;;;;;;;11.47;34.32;101306.80;1460295;89;23004;-83
2023/03/17 10:42:26;;;;;;;10.10;4.90;;;;;;;11.52;34.04;101301.12;1460842;89;21530;-82
2023/03/17 10:45:19;;;;;;;12.20;6.03;;;;;;;11.61;33.21;101292.36;1459114;89;21630;-82
2023/03/17 10:47:49;;;;;;;5.47;3.07;;;;;;;11.94;34.23;101295.73;1457983;89;21471;-82
2023/03/17 10:50:32;;;;;;;10.00;5.00;;;;;;;12.16;33.47;101284.87;1465262;89;21595;-82
2023/03/17 10:53:06;;;;;;;6.37;3.80;;;;;;;12.30;33.81;101289.45;1458423;89;21538;-82
2023/03/17 10:55:41;;;;;;;7.70;2.80;;;;;;;12.36;31.56;101285.73;1459845;89;21433;-82
2023/03/17 10:58:16;;;;;;;8.03;3.37;;;;;;;12.27;29.62;101277.78;1435008;91;22481;-82
2023/03/17 11:01:18;;;;;;;4.67;2.53;;;;;;;12.45;32.17;101277.44;1460443;89;21464;-83
2023/03/17 11:03:46;;;;;;;5.30;2.83;;;;;;;12.56;29.57;101274.64;1349871;93;21694;-83
2023/03/17 11:06:18;;;;;;;8.47;2.87;;;;;;;12.34;28.65;101262.96;1496522;89;22219;-83
2023/03/17 11:08:54;;;;;;;11.27;5.27;;;;;;;12.31;29.21;101271.20;1380970;90;21367;-82
2023/03/17 11:11:32;;;;;;;52.17;28.77;;;;;;;12.22;29.30;101268.06;1404439;91;21474;-83
2023/03/17 11:14:07;;;;;;;8.00;4.03;;;;;;;12.42;29.98;101268.42;1447267;89;21360;-83
2023/03/17 11:16:37;;;;;;;4.13;2.17;;;;;;;12.53;28.06;101259.00;1432691;91;21628;-83
2023/03/17 11:19:08;;;;;;;13.22;2.45;;;;;;;12.38;27.98;101255.09;1462940;88;21634;-84
2023/03/17 11:22:18;;;;;;;8.93;2.50;;;;;;;12.35;28.03;101256.20;1433793;91;21616;-83
2023/03/17 11:25:15;;;;;;;58.93;36.93;;;;;;;12.03;27.81;101248.98;1425023;92;21562;-83
2023/03/17 11:27:55;;;;;;;6.80;3.47;;;;;;;11.69;27.42;101243.48;1417491;91;22279;-83
2023/03/17 11:30:31;;;;;;;;;;;;;;;11.94;29.72;101239.54;1423990;92;21687;-83
2023/03/17 11:33:32;;;;;;;4.77;2.40;;;;;;;12.22;29.17;101238.38;1436987;91;20903;-83
2023/03/17 11:36:42;;;;;;;6.77;3.57;;;;;;;12.59;30.39;101233.70;1426466;91;21826;-84
2023/03/17 11:39:17;;;;;;;4.73;2.63;;;;;;;12.76;30.53;101228.16;1419740;92;21480;-84
2023/03/17 11:42:19;;;;;;;6.93;2.63;;;;;;;13.04;31.11;101225.10;1420323;92;21768;-84
2023/03/17 11:45:00;;;;;;;14.87;9.07;;;;;;;13.17;25.65;101219.45;1434454;92;21571;-84
2023/03/17 11:47:44;;;;;;;;;;;;;;;13.10;26.08;101221.36;1426187;92;22337;-84
2023/03/17 11:50:19;;;;;;;5.60;2.47;;;;;;;13.40;27.46;101218.62;1434438;91;20322;-84
2023/03/17 11:53:19;;;;;;;6.57;2.40;;;;;;;13.83;28.91;101206.00;1432790;91;21495;-85
2023/03/17 11:55:54;;;;;;;4.97;2.10;;;;;;;13.95;24.80;101199.50;1430026;92;21586;-85